Portada
METAR-TAF:

METAR-TAF

Aeroports :

Hagi, Japó

latitud: 34-40N, longitud: 131-48E, altitud: 54 m

Observació

L'informe es va fer fa 12 hores i 54 minuts, a les 10:00 UTC
Vent 7 kt del Oest
Temperatura 23°C
Humitat 65%
Pressió 1010 hPa
Visibilitat 10 km o més
Escasses núvols a una alçada de 5000 ft
Núvols disperses

METAR: RJOW 241000Z 27007KT 9999 FEW050 SCT/// 23/16 Q1010

Hora: 07:54 (22:54 UTC)


TAF: manca

Observacions i pronòstics meteorològics de més de 4000 aeroports (METAR i TAF).

Les estacions disponibles són els punts grocs i vermells al mapa.

Posi el ratolí al punt desitjat per veure el nom de l'estació.

Feu clic per veure les observacions i els pronòstics meteorològics.

Per canviar el mapa: feu clic els botons verds amb una creu de color negre per apropar; al botó verd amb un guió per allunyar la imatge; o en les fletxes verdes per a mapes adjacents.


METAR-TAF: